Time;durP1;ratioP1;P1;durP2;ratioP2;P2;SDS_P1;SDS_P2;PMS_P1;PMS_P2;Temp;Humidity;BMP_temperature;BMP_pressure;BME280_temperature;BME280_humidity;BME280_pressure;Samples;Min_cycle;Max_cycle;Signal;HPM_P1;HPM_P2
2021/09/09 00:01:49;;;;;;;;;;;;;;;;;;5085022;28;19931;-68
2021/09/09 00:04:16;;;;;;;;;;;;;;;;;;5077894;28;19930;-68
2021/09/09 00:06:43;;;;;;;;;;;;;;;;;;5074638;28;20410;-68
2021/09/09 00:09:10;;;;;;;;;;;;;;;;;;5076371;28;20022;-68
2021/09/09 00:11:37;;;;;;;;;;;;;;;;;;5079139;28;19924;-68
2021/09/09 00:14:04;;;;;;;;;;;;;;;;;;5078049;28;19982;-68
2021/09/09 00:16:31;;;;;;;;;;;;;;;;;;5080878;28;20304;-67
2021/09/09 00:18:58;;;;;;;;;;;;;;;;;;5087079;28;19924;-67
2021/09/09 00:21:25;;;;;;;;;;;;;;;;;;5078424;28;19929;-67
2021/09/09 00:23:52;;;;;;;;;;;;;;;;;;5078181;28;19925;-67
2021/09/09 00:26:19;;;;;;;;;;;;;;;;;;5079526;28;20307;-67
2021/09/09 00:28:46;;;;;;;;;;;;;;;;;;5082672;28;19947;-67
2021/09/09 00:31:13;;;;;;;;;;;;;;;;;;5086088;28;19929;-67
2021/09/09 00:33:40;;;;;;;;;;;;;;;;;;5075209;28;19924;-67
2021/09/09 00:36:07;;;;;;;;;;;;;;;;;;5073620;28;19931;-67
2021/09/09 00:38:34;;;;;;;;;;;;;;;;;;5078111;28;20639;-67
2021/09/09 00:41:01;;;;;;;;;;;;;;;;;;5080279;28;20292;-67
2021/09/09 00:43:28;;;;;;;;;;;;;;;;;;5081887;28;19994;-67
2021/09/09 00:45:55;;;;;;;;;;;;;;;;;;5079503;28;19924;-67
2021/09/09 00:48:22;;;;;;;;;;;;;;;;;;5080478;28;19931;-67
2021/09/09 00:50:49;;;;;;;;;;;;;;;;;;5082783;28;19925;-68
2021/09/09 00:53:16;;;;;;;;;;;;;;;;;;5071276;28;20404;-67
2021/09/09 00:55:43;;;;;;;;;;;;;;;;;;5078780;28;19928;-68
2021/09/09 00:58:10;;;;;;;;;;;;;;;;;;5085933;28;19930;-67
2021/09/09 01:00:37;;;;;;;;;;;;;;;;;;5082684;28;19931;-68
2021/09/09 01:03:06;;;;;;;;;;;;;;;;;;5079426;28;19925;-68
2021/09/09 01:05:33;;;;;;;;;;;;;;;;;;5074891;28;20376;-68
2021/09/09 01:08:00;;;;;;;;;;;;;;;;;;5078806;28;20014;-68
2021/09/09 01:10:27;;;;;;;;;;;;;;;;;;5075066;28;19925;-68
2021/09/09 01:12:54;;;;;;;;;;;;;;;;;;5070330;28;19924;-68
2021/09/09 01:15:21;;;;;;;;;;;;;;;;;;5073836;28;19946;-68
2021/09/09 01:17:48;;;;;;;;;;;;;;;;;;5084500;28;19924;-68
2021/09/09 01:20:15;;;;;;;;;;;;;;;;;;5072495;28;19928;-67
2021/09/09 01:22:42;;;;;;;;;;;;;;;;;;5073401;28;19925;-68
2021/09/09 01:25:09;;;;;;;;;;;;;;;;;;5077198;28;19925;-67
2021/09/09 01:27:36;;;;;;;;;;;;;;;;;;5077240;28;19932;-67
2021/09/09 01:30:03;;;;;;;;;;;;;;;;;;5070236;28;20340;-67
2021/09/09 01:32:30;;;;;;;;;;;;;;;;;;5074988;28;20280;-67
2021/09/09 01:34:57;;;;;;;;;;;;;;;;;;5079189;28;19930;-67
2021/09/09 01:37:24;;;;;;;;;;;;;;;;;;5082133;28;19931;-67
2021/09/09 01:39:51;;;;;;;;;;;;;;;;;;5079545;28;20319;-67
2021/09/09 01:42:18;;;;;;;;;;;;;;;;;;5072706;28;20016;-67
2021/09/09 01:44:45;;;;;;;;;;;;;;;;;;5074868;28;19933;-67
2021/09/09 01:47:12;;;;;;;;;;;;;;;;;;5078868;28;20295;-67
2021/09/09 01:49:39;;;;;;;;;;;;;;;;;;5081617;28;19928;-67
2021/09/09 01:52:06;;;;;;;;;;;;;;;;;;5079398;28;19924;-67
2021/09/09 01:54:33;;;;;;;;;;;;;;;;;;5075984;28;19932;-67
2021/09/09 01:57:00;;;;;;;;;;;;;;;;;;5079048;28;19931;-67
2021/09/09 01:59:27;;;;;;;;;;;;;;;;;;5083444;28;19935;-67
2021/09/09 02:01:54;;;;;;;;;;;;;;;;;;5071153;28;19924;-67
2021/09/09 02:04:21;;;;;;;;;;;;;;;;;;5073255;28;19924;-67
2021/09/09 02:06:47;;;;;;;;;;;;;;;;;;5074211;28;20375;-67
2021/09/09 02:09:14;;;;;;;;;;;;;;;;;;5082992;28;19925;-68
2021/09/09 02:11:41;;;;;;;;;;;;;;;;;;5072406;28;19928;-67
2021/09/09 02:14:08;;;;;;;;;;;;;;;;;;5077283;28;19924;-67
2021/09/09 02:16:35;;;;;;;;;;;;;;;;;;5074223;28;19935;-66
2021/09/09 02:19:02;;;;;;;;;;;;;;;;;;5072709;28;20410;-67
2021/09/09 02:21:29;;;;;;;;;;;;;;;;;;5073526;28;19925;-66
2021/09/09 02:23:56;;;;;;;;;;;;;;;;;;5081177;28;19924;-66
2021/09/09 02:26:23;;;;;;;;;;;;;;;;;;5072687;28;19928;-66
2021/09/09 02:28:50;;;;;;;;;;;;;;;;;;5078751;28;19929;-66
2021/09/09 02:31:17;;;;;;;;;;;;;;;;;;5070738;28;19934;-66
2021/09/09 02:33:44;;;;;;;;;;;;;;;;;;5077750;28;19924;-66
2021/09/09 02:36:11;;;;;;;;;;;;;;;;;;5079424;28;19928;-66
2021/09/09 02:38:38;;;;;;;;;;;;;;;;;;5072885;28;19924;-66
2021/09/09 02:41:05;;;;;;;;;;;;;;;;;;5083069;28;19938;-66
2021/09/09 02:43:32;;;;;;;;;;;;;;;;;;5081529;28;19931;-67
2021/09/09 02:45:59;;;;;;;;;;;;;;;;;;5084722;28;20277;-67
2021/09/09 02:48:25;;;;;;;;;;;;;;;;;;5073929;28;19928;-66
2021/09/09 02:50:52;;;;;;;;;;;;;;;;;;5073571;28;19930;-67
2021/09/09 02:53:19;;;;;;;;;;;;;;;;;;5071928;28;19931;-67
2021/09/09 02:55:46;;;;;;;;;;;;;;;;;;5080361;28;19924;-67
2021/09/09 02:58:13;;;;;;;;;;;;;;;;;;5074391;28;19924;-67
2021/09/09 03:00:40;;;;;;;;;;;;;;;;;;5070196;28;20364;-67
2021/09/09 03:03:07;;;;;;;;;;;;;;;;;;5074429;28;20759;-67
2021/09/09 03:05:34;;;;;;;;;;;;;;;;;;5086200;28;19924;-67
2021/09/09 03:08:01;;;;;;;;;;;;;;;;;;5074454;28;19931;-67
2021/09/09 03:10:28;;;;;;;;;;;;;;;;;;5073242;28;19924;-67
2021/09/09 03:12:55;;;;;;;;;;;;;;;;;;5072213;28;19928;-67
2021/09/09 03:15:22;;;;;;;;;;;;;;;;;;5074712;28;19925;-67
2021/09/09 03:17:49;;;;;;;;;;;;;;;;;;5083019;28;19928;-68
2021/09/09 03:20:16;;;;;;;;;;;;;;;;;;5079923;28;20011;-67
2021/09/09 03:22:43;;;;;;;;;;;;;;;;;;5076884;28;19925;-67
2021/09/09 03:25:10;;;;;;;;;;;;;;;;;;5077304;28;19931;-67
2021/09/09 03:27:37;;;;;;;;;;;;;;;;;;5078769;28;19924;-67
2021/09/09 03:30:04;;;;;;;;;;;;;;;;;;5059608;28;20300;-67
2021/09/09 03:32:31;;;;;;;;;;;;;;;;;;5073200;28;20014;-67
2021/09/09 03:34:58;;;;;;;;;;;;;;;;;;5081307;28;19925;-66
2021/09/09 03:37:25;;;;;;;;;;;;;;;;;;5085467;28;20068;-66
2021/09/09 03:39:52;;;;;;;;;;;;;;;;;;5074843;28;19932;-68
2021/09/09 03:42:19;;;;;;;;;;;;;;;;;;5082346;22;19908;-66
2021/09/09 03:44:47;;;;;;;;;;;;;;;;;;5024349;28;20348;-66
2021/09/09 03:47:14;;;;;;;;;;;;;;;;;;5000007;28;19926;-66
2021/09/09 03:49:41;;;;;;;;;;;;;;;;;;5000643;28;19926;-66
2021/09/09 03:52:08;;;;;;;;;;;;;;;;;;5028832;28;19925;-66
2021/09/09 03:54:35;;;;;;;;;;;;;;;;;;5018765;28;19940;-66
2021/09/09 03:57:02;;;;;;;;;;;;;;;;;;5023339;28;19939;-67
2021/09/09 03:59:29;;;;;;;;;;;;;;;;;;5005512;28;20018;-67
2021/09/09 04:01:56;;;;;;;;;;;;;;;;;;5030618;28;19925;-66
2021/09/09 04:04:23;;;;;;;;;;;;;;;;;;5021263;28;19925;-67
2021/09/09 04:06:50;;;;;;;;;;;;;;;;;;5013501;28;19926;-67
2021/09/09 04:09:17;;;;;;;;;;;;;;;;;;5008169;28;19930;-67
2021/09/09 04:11:44;;;;;;;;;;;;;;;;;;5007559;28;19932;-67
2021/09/09 04:14:11;;;;;;;;;;;;;;;;;;5003335;28;19926;-67
2021/09/09 04:16:38;;;;;;;;;;;;;;;;;;5027734;28;20025;-67
2021/09/09 04:19:05;;;;;;;;;;;;;;;;;;5000235;28;19929;-67
2021/09/09 04:21:32;;;;;;;;;;;;;;;;;;5020873;28;20421;-67
2021/09/09 04:23:59;;;;;;;;;;;;;;;;;;5007953;28;19948;-67
2021/09/09 04:26:26;;;;;;;;;;;;;;;;;;5000671;28;19934;-68
2021/09/09 04:28:53;;;;;;;;;;;;;;;;;;5000556;28;19936;-67
2021/09/09 04:31:20;;;;;;;;;;;;;;;;;;5019486;28;19940;-67
2021/09/09 04:33:47;;;;;;;;;;;;;;;;;;4997784;28;19940;-67
2021/09/09 04:36:14;;;;;;;;;;;;;;;;;;4991191;28;20313;-67
2021/09/09 04:38:41;;;;;;;;;;;;;;;;;;5012954;28;19932;-67
2021/09/09 04:41:08;;;;;;;;;;;;;;;;;;4994713;28;19930;-67
2021/09/09 04:43:35;;;;;;;;;;;;;;;;;;5026452;28;19953;-67
2021/09/09 04:46:03;;;;;;;;;;;;;;;;;;5001126;28;19932;-67
2021/09/09 04:48:30;;;;;;;;;;;;;;;;;;4995149;28;19942;-67
2021/09/09 04:50:57;;;;;;;;;;;;;;;;;;4996717;28;19926;-67
2021/09/09 04:53:24;;;;;;;;;;;;;;;;;;5007435;28;19932;-67
2021/09/09 04:55:51;;;;;;;;;;;;;;;;;;4991195;28;20029;-67
2021/09/09 04:58:18;;;;;;;;;;;;;;;;;;4991113;28;20453;-67
2021/09/09 05:00:45;;;;;;;;;;;;;;;;;;5000085;28;19933;-68
2021/09/09 05:03:12;;;;;;;;;;;;;;;;;;5000131;28;19925;-67
2021/09/09 05:05:39;;;;;;;;;;;;;;;;;;5004872;28;19954;-67
2021/09/09 05:08:07;;;;;;;;;;;;;;;;;;4994744;28;20309;-67
2021/09/09 05:10:34;;;;;;;;;;;;;;;;;;4997187;28;21567;-67
2021/09/09 05:13:01;;;;;;;;;;;;;;;;;;4999522;28;20377;-67
2021/09/09 05:15:28;;;;;;;;;;;;;;;;;;4989470;28;20008;-67
2021/09/09 05:17:55;;;;;;;;;;;;;;;;;;4992343;28;19975;-67
2021/09/09 05:20:22;;;;;;;;;;;;;;;;;;4991198;28;19929;-68
2021/09/09 05:22:49;;;;;;;;;;;;;;;;;;5002782;28;19936;-66
2021/09/09 05:25:16;;;;;;;;;;;;;;;;;;4997086;28;19945;-66
2021/09/09 05:27:43;;;;;;;;;;;;;;;;;;4990592;28;20304;-65
2021/09/09 05:30:10;;;;;;;;;;;;;;;;;;5011778;28;19930;-65
2021/09/09 05:32:37;;;;;;;;;;;;;;;;;;5002598;28;20394;-65
2021/09/09 05:35:03;;;;;;;;;;;;;;;;;;4993480;28;19926;-64
2021/09/09 05:37:30;;;;;;;;;;;;;;;;;;5014586;28;20011;-64
2021/09/09 05:39:57;;;;;;;;;;;;;;;;;;4999621;28;19926;-65
2021/09/09 05:42:25;;;;;;;;;;;;;;;;;;4993050;28;20312;-64
2021/09/09 05:44:52;;;;;;;;;;;;;;;;;;5019745;28;19931;-64
2021/09/09 05:47:20;;;;;;;;;;;;;;;;;;4995520;28;20369;-65
2021/09/09 05:49:47;;;;;;;;;;;;;;;;;;4990668;28;19926;-67
2021/09/09 05:52:14;;;;;;;;;;;;;;;;;;4993259;28;19925;-66
2021/09/09 05:54:41;;;;;;;;;;;;;;;;;;5000611;28;19925;-67
2021/09/09 05:57:08;;;;;;;;;;;;;;;;;;4994077;28;20377;-67
2021/09/09 05:59:35;;;;;;;;;;;;;;;;;;4999462;28;19932;-68
2021/09/09 06:02:02;;;;;;;;;;;;;;;;;;5003203;28;20024;-66
2021/09/09 06:04:33;;;;;;;;;;;;;;;;;;4990972;28;19930;-67
2021/09/09 06:07:00;;;;;;;;;;;;;;;;;;4994416;28;20454;-69
2021/09/09 06:09:27;;;;;;;;;;;;;;;;;;4993716;28;19948;-67
2021/09/09 06:11:54;;;;;;;;;;;;;;;;;;4998377;28;19934;-66
2021/09/09 06:14:21;;;;;;;;;;;;;;;;;;4999225;28;20319;-67
2021/09/09 06:16:48;;;;;;;;;;;;;;;;;;4995561;28;19926;-66
2021/09/09 06:19:15;;;;;;;;;;;;;;;;;;4998264;28;19991;-68
2021/09/09 06:21:42;;;;;;;;;;;;;;;;;;4992142;28;19932;-67
2021/09/09 06:24:10;;;;;;;;;;;;;;;;;;4998894;28;20308;-66
2021/09/09 06:26:37;;;;;;;;;;;;;;;;;;4989848;28;19955;-67
2021/09/09 06:29:04;;;;;;;;;;;;;;;;;;4988521;28;20316;-67
2021/09/09 06:31:31;;;;;;;;;;;;;;;;;;4988885;28;19925;-67
2021/09/09 06:33:58;;;;;;;;;;;;;;;;;;4993128;28;19926;-67
2021/09/09 06:36:25;;;;;;;;;;;;;;;;;;4993325;28;20412;-67
2021/09/09 06:38:52;;;;;;;;;;;;;;;;;;4989219;28;19925;-67
2021/09/09 06:41:19;;;;;;;;;;;;;;;;;;4993800;28;19933;-67
2021/09/09 06:43:46;;;;;;;;;;;;;;;;;;4989636;28;20381;-67
2021/09/09 06:46:13;;;;;;;;;;;;;;;;;;4985709;28;20400;-67
2021/09/09 06:48:40;;;;;;;;;;;;;;;;;;4996979;28;19926;-68
2021/09/09 06:51:06;;;;;;;;;;;;;;;;;;4994424;28;19925;-67
2021/09/09 06:53:33;;;;;;;;;;;;;;;;;;4992553;28;19928;-67
2021/09/09 06:56:00;;;;;;;;;;;;;;;;;;4993994;28;20385;-67
2021/09/09 06:58:27;;;;;;;;;;;;;;;;;;4999813;28;19932;-68
2021/09/09 07:00:54;;;;;;;;;;;;;;;;;;4990815;28;19926;-67
2021/09/09 07:03:21;;;;;;;;;;;;;;;;;;4996779;28;19925;-67
2021/09/09 07:05:48;;;;;;;;;;;;;;;;;;4988155;28;19925;-66
2021/09/09 07:08:15;;;;;;;;;;;;;;;;;;4990894;28;20005;-67
2021/09/09 07:10:42;;;;;;;;;;;;;;;;;;5012981;28;19927;-67
2021/09/09 07:13:09;;;;;;;;;;;;;;;;;;4993952;28;19941;-67
2021/09/09 07:15:38;;;;;;;;;;;;;;;;;;5003663;28;20360;-68
2021/09/09 07:18:05;;;;;;;;;;;;;;;;;;4995712;28;19973;-67
2021/09/09 07:20:32;;;;;;;;;;;;;;;;;;4991087;28;19976;-67
2021/09/09 07:22:59;;;;;;;;;;;;;;;;;;4990593;28;19926;-67
2021/09/09 07:25:26;;;;;;;;;;;;;;;;;;4980328;28;19930;-67
2021/09/09 07:27:53;;;;;;;;;;;;;;;;;;4986718;28;20412;-67
2021/09/09 07:30:20;;;;;;;;;;;;;;;;;;4987629;28;19926;-67
2021/09/09 07:32:47;;;;;;;;;;;;;;;;;;4988935;28;19933;-66
2021/09/09 07:35:14;;;;;;;;;;;;;;;;;;4980117;28;19932;-67
2021/09/09 07:37:41;;;;;;;;;;;;;;;;;;4994254;28;20382;-67
2021/09/09 07:40:08;;;;;;;;;;;;;;;;;;4992541;28;19932;-67
2021/09/09 07:42:34;;;;;;;;;;;;;;;;;;4995473;28;19945;-66
2021/09/09 07:45:01;;;;;;;;;;;;;;;;;;4996329;28;20028;-67
2021/09/09 07:47:28;;;;;;;;;;;;;;;;;;4993897;28;20274;-68
2021/09/09 07:49:55;;;;;;;;;;;;;;;;;;4989417;28;19953;-67
2021/09/09 07:52:22;;;;;;;;;;;;;;;;;;4995630;28;20303;-67
2021/09/09 07:54:49;;;;;;;;;;;;;;;;;;4994917;28;19926;-66
2021/09/09 07:57:16;;;;;;;;;;;;;;;;;;4994982;28;19932;-67
2021/09/09 07:59:43;;;;;;;;;;;;;;;;;;4998831;28;19932;-67
2021/09/09 08:02:10;;;;;;;;;;;;;;;;;;4996525;28;19968;-66
2021/09/09 08:04:37;;;;;;;;;;;;;;;;;;4992295;28;19926;-66
2021/09/09 08:07:04;;;;;;;;;;;;;;;;;;4995357;28;20826;-66
2021/09/09 08:09:31;;;;;;;;;;;;;;;;;;5000093;28;19926;-68
2021/09/09 08:11:58;;;;;;;;;;;;;;;;;;4997544;28;20032;-66
2021/09/09 08:14:25;;;;;;;;;;;;;;;;;;4993268;28;19930;-66
2021/09/09 08:16:52;;;;;;;;;;;;;;;;;;4992141;28;20395;-66
2021/09/09 08:19:21;;;;;;;;;;;;;;;;;;4996963;28;19943;-66
2021/09/09 08:21:48;;;;;;;;;;;;;;;;;;5004598;28;19932;-67
2021/09/09 08:24:15;;;;;;;;;;;;;;;;;;4994727;28;19926;-67
2021/09/09 08:26:42;;;;;;;;;;;;;;;;;;4996652;28;20355;-68
2021/09/09 08:29:09;;;;;;;;;;;;;;;;;;4994345;28;20380;-67
2021/09/09 08:31:36;;;;;;;;;;;;;;;;;;4993574;28;19941;-67
2021/09/09 08:34:03;;;;;;;;;;;;;;;;;;4991624;28;19956;-67
2021/09/09 08:36:30;;;;;;;;;;;;;;;;;;4996140;28;20852;-67
2021/09/09 08:39:07;;;;;;;;;;;;;;;;;;4989054;28;20184;-67
2021/09/09 08:41:39;;;;;;;;;;;;;;;;;;4995703;28;19975;-65
2021/09/09 08:44:06;;;;;;;;;;;;;;;;;;4991087;28;19949;-65
2021/09/09 08:46:33;;;;;;;;;;;;;;;;;;4998288;28;19996;-66
2021/09/09 08:49:00;;;;;;;;;;;;;;;;;;5003756;28;19925;-66
2021/09/09 08:51:27;;;;;;;;;;;;;;;;;;4993526;28;19930;-67
2021/09/09 08:53:53;;;;;;;;;;;;;;;;;;4990918;28;19933;-67
2021/09/09 08:56:20;;;;;;;;;;;;;;;;;;4990713;28;19933;-66
2021/09/09 08:58:47;;;;;;;;;;;;;;;;;;4990892;28;20278;-67
2021/09/09 09:01:14;;;;;;;;;;;;;;;;;;4996696;28;19932;-67
2021/09/09 09:03:41;;;;;;;;;;;;;;;;;;4996072;28;19926;-67
2021/09/09 09:06:17;;;;;;;;;;;;;;;;;;4994867;28;19948;-66
2021/09/09 09:08:44;;;;;;;;;;;;;;;;;;4995024;28;20013;-66
2021/09/09 09:11:11;;;;;;;;;;;;;;;;;;5000237;28;19925;-67
2021/09/09 09:13:38;;;;;;;;;;;;;;;;;;4992543;28;19926;-66
2021/09/09 09:16:05;;;;;;;;;;;;;;;;;;4996743;28;19967;-66
2021/09/09 09:18:32;;;;;;;;;;;;;;;;;;4990577;28;20309;-66
2021/09/09 09:20:59;;;;;;;;;;;;;;;;;;4998226;28;19930;-66
2021/09/09 09:23:26;;;;;;;;;;;;;;;;;;4993822;28;19926;-67
2021/09/09 09:25:53;;;;;;;;;;;;;;;;;;4996321;28;19940;-67
2021/09/09 09:28:20;;;;;;;;;;;;;;;;;;5002462;28;20015;-67
2021/09/09 09:30:46;;;;;;;;;;;;;;;;;;4992381;28;20020;-66
2021/09/09 09:33:13;;;;;;;;;;;;;;;;;;4991340;28;19925;-67
2021/09/09 09:35:40;;;;;;;;;;;;;;;;;;4995613;28;20025;-67
2021/09/09 09:38:07;;;;;;;;;;;;;;;;;;4997109;28;19925;-67
2021/09/09 09:40:36;;;;;;;;;;;;;;;;;;4989080;28;19956;-66
2021/09/09 09:43:03;;;;;;;;;;;;;;;;;;5029741;22;19925;-68
2021/09/09 09:45:30;;;;;;;;;;;;;;;;;;5050271;28;19924;-68
2021/09/09 09:47:57;;;;;;;;;;;;;;;;;;5047729;28;19931;-68
2021/09/09 09:50:23;;;;;;;;;;;;;;;;;;5047455;28;20271;-68
2021/09/09 09:52:50;;;;;;;;;;;;;;;;;;5049023;28;19924;-68
2021/09/09 09:55:17;;;;;;;;;;;;;;;;;;5047845;28;19925;-68
2021/09/09 09:57:44;;;;;;;;;;;;;;;;;;5047799;28;19928;-68
2021/09/09 10:00:11;;;;;;;;;;;;;;;;;;5047878;28;19931;-68
2021/09/09 10:02:38;;;;;;;;;;;;;;;;;;5048643;28;19929;-68
2021/09/09 10:05:05;;;;;;;;;;;;;;;;;;5050972;28;19924;-68
2021/09/09 10:07:32;;;;;;;;;;;;;;;;;;5049705;28;19940;-68
2021/09/09 10:09:59;;;;;;;;;;;;;;;;;;5047143;28;20092;-68
2021/09/09 10:12:26;;;;;;;;;;;;;;;;;;5044875;28;20277;-69
2021/09/09 10:14:55;;;;;;;;;;;;;;;;;;5050614;28;19931;-69
2021/09/09 10:17:22;;;;;;;;;;;;;;;;;;5051460;28;20020;-68
2021/09/09 10:19:52;;;;;;;;;;;;;;;;;;5049471;28;19972;-68
2021/09/09 10:22:18;;;;;;;;;;;;;;;;;;5043873;28;19929;-68
2021/09/09 10:24:45;;;;;;;;;;;;;;;;;;5048310;28;19924;-68
2021/09/09 10:27:12;;;;;;;;;;;;;;;;;;5049874;28;19935;-68
2021/09/09 10:29:39;;;;;;;;;;;;;;;;;;5050559;28;19925;-68
2021/09/09 10:32:06;;;;;;;;;;;;;;;;;;5046520;28;20288;-67
2021/09/09 10:34:33;;;;;;;;;;;;;;;;;;5051401;28;20295;-67
2021/09/09 10:37:03;;;;;;;;;;;;;;;;;;5048623;28;19932;-67
2021/09/09 10:39:31;;;;;;;;;;;;;;;;;;5046380;28;20290;-67
2021/09/09 10:41:57;;;;;;;;;;;;;;;;;;5041687;28;19928;-67
2021/09/09 10:44:24;;;;;;;;;;;;;;;;;;5044916;28;20388;-67
2021/09/09 10:46:51;;;;;;;;;;;;;;;;;;5050342;28;19931;-67
2021/09/09 10:49:18;;;;;;;;;;;;;;;;;;5043645;28;20150;-67
2021/09/09 10:51:45;;;;;;;;;;;;;;;;;;5049553;28;19924;-67
2021/09/09 10:54:12;;;;;;;;;;;;;;;;;;5049522;28;19932;-67
2021/09/09 10:56:39;;;;;;;;;;;;;;;;;;5049887;28;19925;-67
2021/09/09 10:59:06;;;;;;;;;;;;;;;;;;5048930;28;20389;-68
2021/09/09 11:01:33;;;;;;;;;;;;;;;;;;5047463;28;19944;-67
2021/09/09 11:04:00;;;;;;;;;;;;;;;;;;5038985;28;19943;-67
2021/09/09 11:06:28;;;;;;;;;;;;;;;;;;5051073;28;20007;-67
2021/09/09 11:08:55;;;;;;;;;;;;;;;;;;5043441;28;19932;-67
2021/09/09 11:11:22;;;;;;;;;;;;;;;;;;5048785;28;19939;-67
2021/09/09 11:13:49;;;;;;;;;;;;;;;;;;5048263;28;19925;-67
2021/09/09 11:16:16;;;;;;;;;;;;;;;;;;5050650;28;19931;-67
2021/09/09 11:18:43;;;;;;;;;;;;;;;;;;5043495;28;19951;-67
2021/09/09 11:21:10;;;;;;;;;;;;;;;;;;5047910;28;20293;-67
2021/09/09 11:23:37;;;;;;;;;;;;;;;;;;5046692;28;19925;-67
2021/09/09 11:26:04;;;;;;;;;;;;;;;;;;5046539;28;19925;-67
2021/09/09 11:28:31;;;;;;;;;;;;;;;;;;5047914;28;19924;-67
2021/09/09 11:30:58;;;;;;;;;;;;;;;;;;5046723;28;20391;-67
2021/09/09 11:33:25;;;;;;;;;;;;;;;;;;5050455;28;19924;-68
2021/09/09 11:35:51;;;;;;;;;;;;;;;;;;5050585;28;19969;-67
2021/09/09 11:38:18;;;;;;;;;;;;;;;;;;5049747;28;19931;-67
2021/09/09 11:40:45;;;;;;;;;;;;;;;;;;5052330;28;19932;-67
2021/09/09 11:43:12;;;;;;;;;;;;;;;;;;5051299;28;19959;-68
2021/09/09 11:45:39;;;;;;;;;;;;;;;;;;5045307;28;19946;-68
2021/09/09 11:48:06;;;;;;;;;;;;;;;;;;5048373;28;19925;-69
2021/09/09 11:50:33;;;;;;;;;;;;;;;;;;5053391;28;20025;-67
2021/09/09 11:53:00;;;;;;;;;;;;;;;;;;5053771;28;20391;-69
2021/09/09 11:55:27;;;;;;;;;;;;;;;;;;5053954;28;19929;-68
2021/09/09 11:57:54;;;;;;;;;;;;;;;;;;5052570;28;20410;-68
2021/09/09 12:00:21;;;;;;;;;;;;;;;;;;5044627;28;19947;-69
2021/09/09 12:02:48;;;;;;;;;;;;;;;;;;5053617;28;20015;-69
2021/09/09 12:05:15;;;;;;;;;;;;;;;;;;5054556;28;19925;-69
2021/09/09 12:07:42;;;;;;;;;;;;;;;;;;5051761;28;19978;-69
2021/09/09 12:10:10;;;;;;;;;;;;;;;;;;5052667;28;19932;-69
2021/09/09 12:12:37;;;;;;;;;;;;;;;;;;5052010;28;19979;-70
2021/09/09 12:15:04;;;;;;;;;;;;;;;;;;5053996;28;19925;-69
2021/09/09 12:17:31;;;;;;;;;;;;;;;;;;5054704;28;19928;-68
2021/09/09 12:19:58;;;;;;;;;;;;;;;;;;5051347;28;19928;-68
2021/09/09 12:22:25;;;;;;;;;;;;;;;;;;5053323;28;20007;-68
2021/09/09 12:24:51;;;;;;;;;;;;;;;;;;5053336;28;19928;-68
2021/09/09 12:27:19;;;;;;;;;;;;;;;;;;5053228;28;19960;-68
2021/09/09 12:29:47;;;;;;;;;;;;;;;;;;5048831;28;19925;-68
2021/09/09 12:32:14;;;;;;;;;;;;;;;;;;5052171;28;19924;-68
2021/09/09 12:34:41;;;;;;;;;;;;;;;;;;5051026;28;19935;-67
2021/09/09 12:37:08;;;;;;;;;;;;;;;;;;5041360;28;20488;-68
2021/09/09 12:39:35;;;;;;;;;;;;;;;;;;5051468;28;19924;-67
2021/09/09 12:42:02;;;;;;;;;;;;;;;;;;5046461;28;19964;-68
2021/09/09 12:44:29;;;;;;;;;;;;;;;;;;5050186;28;19925;-67
2021/09/09 12:46:56;;;;;;;;;;;;;;;;;;5048702;28;19925;-68
2021/09/09 12:49:23;;;;;;;;;;;;;;;;;;5050554;28;20282;-68
2021/09/09 12:51:50;;;;;;;;;;;;;;;;;;5051852;28;19936;-67
2021/09/09 12:54:17;;;;;;;;;;;;;;;;;;5048002;28;19924;-67
2021/09/09 12:56:44;;;;;;;;;;;;;;;;;;5053867;28;20300;-68
2021/09/09 12:59:11;;;;;;;;;;;;;;;;;;5050968;28;19925;-67
2021/09/09 13:01:37;;;;;;;;;;;;;;;;;;5046762;28;19925;-68
2021/09/09 13:04:04;;;;;;;;;;;;;;;;;;5051052;28;19928;-68
2021/09/09 13:06:31;;;;;;;;;;;;;;;;;;5047746;28;19929;-67
2021/09/09 13:08:58;;;;;;;;;;;;;;;;;;5052326;28;19925;-67
2021/09/09 13:11:25;;;;;;;;;;;;;;;;;;5047962;28;20282;-68
2021/09/09 13:13:52;;;;;;;;;;;;;;;;;;5051553;28;20423;-69
2021/09/09 13:16:19;;;;;;;;;;;;;;;;;;5050091;28;20353;-69
2021/09/09 13:18:46;;;;;;;;;;;;;;;;;;5047174;28;19931;-68
2021/09/09 13:21:16;;;;;;;;;;;;;;;;;;5051201;28;20019;-69
2021/09/09 13:23:42;;;;;;;;;;;;;;;;;;5052704;28;20162;-68
2021/09/09 13:26:09;;;;;;;;;;;;;;;;;;5053169;28;19933;-68
2021/09/09 13:28:39;;;;;;;;;;;;;;;;;;5050011;28;19931;-69
2021/09/09 13:31:06;;;;;;;;;;;;;;;;;;5048114;28;19929;-68
2021/09/09 13:33:33;;;;;;;;;;;;;;;;;;5045336;28;20389;-68
2021/09/09 13:36:00;;;;;;;;;;;;;;;;;;5050201;28;19924;-68
2021/09/09 13:38:28;;;;;;;;;;;;;;;;;;5052491;28;20392;-68
2021/09/09 13:40:55;;;;;;;;;;;;;;;;;;5042878;28;19932;-68
2021/09/09 13:43:22;;;;;;;;;;;;;;;;;;5045653;28;19936;-68
2021/09/09 13:45:49;;;;;;;;;;;;;;;;;;5047572;28;19925;-68
2021/09/09 13:48:16;;;;;;;;;;;;;;;;;;5046741;28;19932;-68
2021/09/09 13:50:43;;;;;;;;;;;;;;;;;;5046224;28;20301;-69
2021/09/09 13:53:10;;;;;;;;;;;;;;;;;;5045944;28;20416;-68
2021/09/09 13:55:38;;;;;;;;;;;;;;;;;;5049635;28;19925;-68
2021/09/09 13:58:05;;;;;;;;;;;;;;;;;;5051061;28;19960;-68
2021/09/09 14:00:32;;;;;;;;;;;;;;;;;;5045160;28;19967;-68
2021/09/09 14:02:59;;;;;;;;;;;;;;;;;;5044871;28;19928;-67
2021/09/09 14:05:26;;;;;;;;;;;;;;;;;;5048083;28;19931;-67
2021/09/09 14:07:53;;;;;;;;;;;;;;;;;;5051841;28;19931;-67
2021/09/09 14:10:20;;;;;;;;;;;;;;;;;;5049124;28;20023;-68
2021/09/09 14:12:47;;;;;;;;;;;;;;;;;;5047428;28;19933;-68
2021/09/09 14:15:14;;;;;;;;;;;;;;;;;;5047824;28;19931;-68
2021/09/09 14:17:41;;;;;;;;;;;;;;;;;;5052203;28;19924;-68
2021/09/09 14:20:08;;;;;;;;;;;;;;;;;;5049170;28;20030;-68
2021/09/09 14:22:35;;;;;;;;;;;;;;;;;;5050576;28;20027;-68
2021/09/09 14:25:02;;;;;;;;;;;;;;;;;;5049016;28;19931;-68
2021/09/09 14:27:29;;;;;;;;;;;;;;;;;;5048723;28;19931;-68
2021/09/09 14:29:56;;;;;;;;;;;;;;;;;;5047835;28;20254;-68
2021/09/09 14:32:23;;;;;;;;;;;;;;;;;;5049864;28;19924;-68
2021/09/09 14:34:50;;;;;;;;;;;;;;;;;;5049498;28;19924;-67
2021/09/09 14:37:17;;;;;;;;;;;;;;;;;;5051460;28;20381;-68
2021/09/09 14:39:46;;;;;;;;;;;;;;;;;;5044849;28;20229;-68
2021/09/09 14:42:13;;;;;;;;;;;;;;;;;;5049198;28;20304;-68
2021/09/09 14:44:40;;;;;;;;;;;;;;;;;;5048050;28;19925;-68
2021/09/09 14:47:07;;;;;;;;;;;;;;;;;;5048905;28;20278;-68
2021/09/09 14:49:34;;;;;;;;;;;;;;;;;;5049492;28;20377;-68
2021/09/09 14:52:01;;;;;;;;;;;;;;;;;;5050761;28;19924;-69
2021/09/09 14:54:31;;;;;;;;;;;;;;;;;;5047347;28;19932;-68
2021/09/09 14:56:58;;;;;;;;;;;;;;;;;;5050471;28;19925;-69
2021/09/09 14:59:25;;;;;;;;;;;;;;;;;;5045845;28;19939;-69
2021/09/09 15:01:52;;;;;;;;;;;;;;;;;;5048971;28;19929;-68
2021/09/09 15:04:19;;;;;;;;;;;;;;;;;;5049069;28;19928;-69
2021/09/09 15:06:46;;;;;;;;;;;;;;;;;;5042114;28;19932;-69
2021/09/09 15:09:13;;;;;;;;;;;;;;;;;;5050594;28;19929;-69
2021/09/09 15:11:40;;;;;;;;;;;;;;;;;;5047564;28;19925;-68
2021/09/09 15:14:07;;;;;;;;;;;;;;;;;;5045498;28;19939;-68
2021/09/09 15:16:34;;;;;;;;;;;;;;;;;;5043312;28;20507;-68
2021/09/09 15:19:01;;;;;;;;;;;;;;;;;;5048234;28;19971;-68
2021/09/09 15:21:28;;;;;;;;;;;;;;;;;;5046678;28;19925;-69
2021/09/09 15:23:55;;;;;;;;;;;;;;;;;;5047366;28;19933;-69
2021/09/09 15:26:22;;;;;;;;;;;;;;;;;;5046322;28;20303;-69
2021/09/09 15:28:49;;;;;;;;;;;;;;;;;;5046153;28;19925;-69
2021/09/09 15:31:17;;;;;;;;;;;;;;;;;;5048953;28;19932;-69
2021/09/09 15:33:44;;;;;;;;;;;;;;;;;;5046412;28;19937;-69
2021/09/09 15:36:11;;;;;;;;;;;;;;;;;;5050136;28;20401;-68
2021/09/09 15:38:38;;;;;;;;;;;;;;;;;;5045340;28;20388;-69
2021/09/09 15:41:05;;;;;;;;;;;;;;;;;;5042572;28;19951;-69
2021/09/09 15:43:32;;;;;;;;;;;;;;;;;;5085018;22;19928;-72
2021/09/09 15:45:59;;;;;;;;;;;;;;;;;;5083595;28;19931;-71
2021/09/09 15:48:26;;;;;;;;;;;;;;;;;;5081756;28;20280;-72
2021/09/09 15:50:53;;;;;;;;;;;;;;;;;;5088155;28;20192;-71
2021/09/09 15:53:20;;;;;;;;;;;;;;;;;;5084730;28;19928;-68
2021/09/09 15:55:49;;;;;;;;;;;;;;;;;;5087560;28;19933;-69
2021/09/09 15:58:16;;;;;;;;;;;;;;;;;;5084774;28;20323;-67
2021/09/09 16:00:43;;;;;;;;;;;;;;;;;;5085520;28;19924;-70
2021/09/09 16:03:10;;;;;;;;;;;;;;;;;;5081900;28;20400;-68
2021/09/09 16:05:37;;;;;;;;;;;;;;;;;;5086090;28;19923;-69
2021/09/09 16:08:04;;;;;;;;;;;;;;;;;;5085134;28;19978;-70
2021/09/09 16:10:31;;;;;;;;;;;;;;;;;;5083074;28;19924;-69
2021/09/09 16:12:58;;;;;;;;;;;;;;;;;;5085727;28;20470;-72
2021/09/09 16:15:25;;;;;;;;;;;;;;;;;;5086977;28;20007;-68
2021/09/09 16:17:55;;;;;;;;;;;;;;;;;;5088179;28;20405;-68
2021/09/09 16:20:22;;;;;;;;;;;;;;;;;;5089117;28;20027;-69
2021/09/09 16:22:49;;;;;;;;;;;;;;;;;;5084698;28;19939;-70
2021/09/09 16:25:16;;;;;;;;;;;;;;;;;;5087730;28;19935;-68
2021/09/09 16:27:43;;;;;;;;;;;;;;;;;;5087396;28;19943;-68
2021/09/09 16:30:10;;;;;;;;;;;;;;;;;;5089531;28;20311;-69
2021/09/09 16:32:37;;;;;;;;;;;;;;;;;;5087831;28;20106;-69
2021/09/09 16:35:04;;;;;;;;;;;;;;;;;;5085498;28;20454;-72
2021/09/09 16:37:31;;;;;;;;;;;;;;;;;;5089017;28;19931;-73
2021/09/09 16:39:58;;;;;;;;;;;;;;;;;;5086737;28;19928;-72
2021/09/09 16:42:25;;;;;;;;;;;;;;;;;;5088744;28;20422;-72
2021/09/09 16:44:52;;;;;;;;;;;;;;;;;;5084806;28;19928;-72